Terminal Aerodrome Forecast
Issued by NWS

Home | Current Version | Previous Version | Text Only | Print | Product List | Glossary On
Versions: 1 2 3 4 5 6 7 8 9 10 11 12 13 14
000
FTAK31 PAJN 281122
TAFAWG
TAF
PAWG 281122Z 2812/2912 11010KT 6SM -RA BR BKN020 OVC035
      WS020/16025KT
     FM281400 12012KT 4SM RA BR BKN018 OVC030 WS020/16025KT
     FM281900 12014G23KT 4SM RA BR BKN015 OVC030 WS020/16030KT
     FM290300 11012KT 5SM -RA BR BKN025 OVC040 WS020/15030KT
      AMD LTD TO CLD VIS AND WIND 2812/2815=

USA.gov is the U.S. government's official web portal to all federal, state and local government web resources and services.